Time;durP1;ratioP1;P1;durP2;ratioP2;P2;SDS_P1;SDS_P2;PMS_P1;PMS_P2;Temp;Humidity;BMP_temperature;BMP_pressure;BME280_temperature;BME280_humidity;BME280_pressure;Samples;Min_cycle;Max_cycle;Signal;HPM_P1;HPM_P2
2022/05/08 00:01:53;;;;;;;11.45;7.90;;;;;;;;;;5002311;28;20033;-82
2022/05/08 00:04:19;;;;;;;12.50;7.75;;;;;;;;;;5009332;28;20100;-81
2022/05/08 00:06:44;;;;;;;14.25;8.02;;;;;;;;;;5009740;28;20568;-81
2022/05/08 00:09:09;;;;;;;15.02;7.22;;;;;;;;;;5004662;28;20493;-81
2022/05/08 00:11:35;;;;;;;13.60;7.22;;;;;;;;;;5008903;28;20515;-81
2022/05/08 00:14:00;;;;;;;12.45;7.63;;;;;;;;;;5010334;28;20083;-81
2022/05/08 00:16:27;;;;;;;14.20;7.22;;;;;;;;;;5019832;28;20037;-83
2022/05/08 00:18:54;;;;;;;10.57;7.25;;;;;;;;;;5013880;28;20026;-81
2022/05/08 00:21:19;;;;;;;14.07;7.85;;;;;;;;;;5019024;28;20045;-81
2022/05/08 00:23:45;;;;;;;14.43;8.20;;;;;;;;;;5025626;28;20030;-81
2022/05/08 00:26:11;;;;;;;14.50;7.93;;;;;;;;;;5039671;28;20063;-82
2022/05/08 00:28:38;;;;;;;10.30;7.57;;;;;;;;;;5019103;28;20512;-82
2022/05/08 00:31:04;;;;;;;11.82;8.00;;;;;;;;;;5007485;28;20535;-82
2022/05/08 00:33:30;;;;;;;13.35;7.60;;;;;;;;;;5010583;28;20030;-82
2022/05/08 00:35:55;;;;;;;10.68;7.55;;;;;;;;;;5030764;28;20059;-83
2022/05/08 00:38:21;;;;;;;10.65;7.28;;;;;;;;;;5039310;28;20029;-82
2022/05/08 00:40:46;;;;;;;13.88;8.48;;;;;;;;;;5036944;28;20017;-82
2022/05/08 00:43:36;;;;;;;13.32;8.55;;;;;;;;;;5025903;28;20064;-81
2022/05/08 00:46:06;;;;;;;11.65;7.93;;;;;;;;;;5010460;28;20021;-81
2022/05/08 00:48:33;;;;;;;12.57;7.90;;;;;;;;;;5018815;28;20018;-81
2022/05/08 00:50:59;;;;;;;12.10;8.15;;;;;;;;;;5012489;28;20369;-81
2022/05/08 00:53:27;;;;;;;13.88;8.23;;;;;;;;;;5017159;28;20080;-81
2022/05/08 00:55:53;;;;;;;12.02;7.50;;;;;;;;;;5023145;28;20096;-83
2022/05/08 00:58:18;;;;;;;11.25;7.97;;;;;;;;;;5021689;28;20040;-82
2022/05/08 01:00:44;;;;;;;12.65;7.90;;;;;;;;;;5022187;28;20014;-82
2022/05/08 01:03:11;;;;;;;12.90;9.02;;;;;;;;;;5012972;28;20059;-80
2022/05/08 01:05:41;;;;;;;13.35;8.40;;;;;;;;;;5038576;28;20511;-81
2022/05/08 01:08:07;;;;;;;10.55;8.48;;;;;;;;;;5037049;28;20033;-81
2022/05/08 01:10:32;;;;;;;13.57;8.50;;;;;;;;;;5037414;28;20032;-81
2022/05/08 01:12:58;;;;;;;12.07;8.40;;;;;;;;;;5024519;28;20022;-80
2022/05/08 01:15:23;;;;;;;14.20;8.75;;;;;;;;;;5017147;28;20062;-81
2022/05/08 01:17:49;;;;;;;14.55;8.65;;;;;;;;;;5009994;28;20049;-82
2022/05/08 01:20:15;;;;;;;11.52;8.85;;;;;;;;;;5013906;28;20025;-79
2022/05/08 01:22:41;;;;;;;12.63;8.70;;;;;;;;;;5026827;28;20129;-82
2022/05/08 01:25:06;;;;;;;14.00;8.98;;;;;;;;;;5030503;28;20021;-82
2022/05/08 01:27:32;;;;;;;12.02;8.68;;;;;;;;;;5038898;28;20638;-82
2022/05/08 01:29:57;;;;;;;11.63;8.90;;;;;;;;;;5022175;28;20021;-81
2022/05/08 01:32:22;;;;;;;14.32;9.52;;;;;;;;;;5016804;28;20029;-82
2022/05/08 01:34:48;;;;;;;13.25;9.88;;;;;;;;;;5011974;28;20026;-81
2022/05/08 01:37:13;;;;;;;20.10;10.30;;;;;;;;;;5028186;28;20116;-81
2022/05/08 01:39:38;;;;;;;13.57;9.32;;;;;;;;;;5025624;28;20101;-81
2022/05/08 01:42:06;;;;;;;13.32;9.23;;;;;;;;;;5015945;28;20523;-81
2022/05/08 01:44:32;;;;;;;16.52;10.55;;;;;;;;;;5016811;28;20029;-80
2022/05/08 01:49:41;;;;;;;13.90;10.48;;;;;;;;;;5007401;28;20574;-82
2022/05/08 01:52:07;;;;;;;15.07;10.68;;;;;;;;;;5015117;28;20030;-81
2022/05/08 01:54:33;;;;;;;19.27;11.30;;;;;;;;;;5028376;28;20084;-81
2022/05/08 01:56:58;;;;;;;14.43;9.82;;;;;;;;;;5017753;28;20113;-81
2022/05/08 01:59:24;;;;;;;16.15;10.68;;;;;;;;;;5021956;28;20417;-80
2022/05/08 02:01:50;;;;;;;17.85;10.85;;;;;;;;;;5019935;28;20026;-82
2022/05/08 02:04:15;;;;;;;14.20;10.27;;;;;;;;;;5009923;28;20034;-81
2022/05/08 02:06:42;;;;;;;17.15;10.63;;;;;;;;;;5016813;28;20555;-79
2022/05/08 02:09:07;;;;;;;13.93;10.23;;;;;;;;;;5033225;28;20471;-81
2022/05/08 02:11:33;;;;;;;12.23;9.70;;;;;;;;;;5038740;28;20022;-82
2022/05/08 02:13:58;;;;;;;16.25;10.13;;;;;;;;;;5034385;28;20092;-80
2022/05/08 02:16:24;;;;;;;14.48;9.50;;;;;;;;;;5027266;28;20032;-82
2022/05/08 02:22:11;;;;;;;15.90;10.18;;;;;;;;;;5008036;28;20057;-82
2022/05/08 02:24:36;;;;;;;16.40;9.98;;;;;;;;;;5032374;28;20030;-82
2022/05/08 02:27:02;;;;;;;16.77;11.00;;;;;;;;;;5023140;28;20033;-80
2022/05/08 02:29:27;;;;;;;15.70;10.35;;;;;;;;;;5015473;28;20025;-80
2022/05/08 02:31:53;;;;;;;15.32;10.68;;;;;;;;;;5013337;28;20084;-80
2022/05/08 02:34:18;;;;;;;13.48;9.82;;;;;;;;;;5011880;28;20022;-78
2022/05/08 02:36:43;;;;;;;14.05;9.68;;;;;;;;;;5013289;28;20104;-79
2022/05/08 02:39:09;;;;;;;14.25;9.98;;;;;;;;;;5011443;28;20022;-79
2022/05/08 02:41:34;;;;;;;14.30;10.13;;;;;;;;;;5012216;28;20432;-79
2022/05/08 02:44:00;;;;;;;13.57;9.60;;;;;;;;;;5015393;28;20159;-82
2022/05/08 02:46:25;;;;;;;14.35;10.45;;;;;;;;;;5019367;28;20026;-81
2022/05/08 02:48:50;;;;;;;12.02;9.98;;;;;;;;;;5029419;28;20026;-81
2022/05/08 02:51:16;;;;;;;12.85;9.63;;;;;;;;;;5017980;28;20029;-81
2022/05/08 02:53:41;;;;;;;12.48;9.57;;;;;;;;;;5016579;28;20397;-81
2022/05/08 02:58:51;;;;;;;12.82;9.50;;;;;;;;;;5020857;28;20021;-82
2022/05/08 03:01:16;;;;;;;16.27;10.23;;;;;;;;;;5007986;28;20018;-81
2022/05/08 03:03:41;;;;;;;13.45;9.77;;;;;;;;;;5009659;28;20389;-82
2022/05/08 03:06:07;;;;;;;14.40;10.35;;;;;;;;;;5014352;28;20105;-81
2022/05/08 03:08:32;;;;;;;14.55;10.75;;;;;;;;;;5008243;28;20037;-82
2022/05/08 03:13:42;;;;;;;13.82;9.55;;;;;;;;;;5008912;28;20487;-82
2022/05/08 03:16:10;;;;;;;12.25;9.38;;;;;;;;;;4997764;28;20034;-82
2022/05/08 03:18:39;;;;;;;13.23;10.25;;;;;;;;;;4997410;28;20109;-81
2022/05/08 03:21:08;;;;;;;17.45;11.18;;;;;;;;;;5022956;28;20067;-80
2022/05/08 03:23:34;;;;;;;17.40;9.90;;;;;;;;;;5033071;28;20025;-80
2022/05/08 03:26:01;;;;;;;14.48;9.70;;;;;;;;;;5029698;28;20030;-82
2022/05/08 03:28:27;;;;;;;16.35;9.77;;;;;;;;;;5035312;28;20497;-80
2022/05/08 03:30:52;;;;;;;21.60;10.23;;;;;;;;;;5034524;28;20018;-81
2022/05/08 03:33:18;;;;;;;17.38;10.52;;;;;;;;;;4998723;28;20057;-81
2022/05/08 03:35:43;;;;;;;17.48;10.00;;;;;;;;;;5029571;28;20022;-80
2022/05/08 03:38:09;;;;;;;14.32;9.43;;;;;;;;;;5034976;28;20025;-81
2022/05/08 03:40:35;;;;;;;12.23;9.40;;;;;;;;;;5037444;28;20419;-80
2022/05/08 03:43:02;;;;;;;15.75;10.57;;;;;;;;;;5029290;28;20092;-81
2022/05/08 03:45:29;;;;;;;13.52;10.40;;;;;;;;;;5012389;28;20432;-82
2022/05/08 03:47:54;;;;;;;16.42;11.10;;;;;;;;;;5017087;28;20022;-80
2022/05/08 03:50:21;;;;;;;18.42;10.85;;;;;;;;;;5017959;28;20024;-81
2022/05/08 03:52:47;;;;;;;17.83;11.25;;;;;;;;;;5039683;28;20116;-82
2022/05/08 03:55:13;;;;;;;15.77;10.77;;;;;;;;;;5025586;28;20033;-82
2022/05/08 03:57:38;;;;;;;16.52;10.57;;;;;;;;;;5023725;28;20541;-82
2022/05/08 04:00:05;;;;;;;18.23;10.55;;;;;;;;;;5015310;28;20026;-82
2022/05/08 04:02:30;;;;;;;16.20;10.77;;;;;;;;;;5018408;28;20032;-81
2022/05/08 04:04:56;;;;;;;17.45;11.43;;;;;;;;;;5025580;28;20029;-81
2022/05/08 04:07:21;;;;;;;15.00;11.10;;;;;;;;;;5020453;28;20105;-79
2022/05/08 04:09:46;;;;;;;16.00;10.32;;;;;;;;;;5015765;28;20065;-80
2022/05/08 04:12:12;;;;;;;13.52;10.48;;;;;;;;;;5017337;28;20026;-80
2022/05/08 04:14:38;;;;;;;15.63;10.85;;;;;;;;;;5015731;28;20049;-78
2022/05/08 04:17:03;;;;;;;14.90;10.68;;;;;;;;;;5018180;28;20052;-80
2022/05/08 04:19:29;;;;;;;14.75;10.38;;;;;;;;;;5004921;28;20101;-79
2022/05/08 04:24:16;;;;;;;13.75;9.75;;;;;;;;;;5017798;28;20022;-79
2022/05/08 04:24:41;;;;;;;14.02;10.55;;;;;;;;;;5017675;28;20654;-79
2022/05/08 04:27:06;;;;;;;16.90;11.05;;;;;;;;;;5032969;28;20037;-79
2022/05/08 04:29:31;;;;;;;13.15;10.10;;;;;;;;;;5037903;28;20021;-80
2022/05/08 04:31:57;;;;;;;13.63;10.20;;;;;;;;;;5037281;28;20029;-79
2022/05/08 04:34:22;;;;;;;14.70;11.18;;;;;;;;;;5027201;28;20057;-81
2022/05/08 04:36:48;;;;;;;14.05;10.65;;;;;;;;;;5017433;28;20037;-81
2022/05/08 04:39:13;;;;;;;14.05;11.27;;;;;;;;;;5018404;28;20026;-80
2022/05/08 04:41:38;;;;;;;14.25;11.07;;;;;;;;;;5025131;28;20029;-79
2022/05/08 04:44:04;;;;;;;13.48;10.23;;;;;;;;;;5025777;28;20401;-79
2022/05/08 04:46:30;;;;;;;16.73;11.27;;;;;;;;;;5019713;28;20022;-81
2022/05/08 04:48:55;;;;;;;16.13;11.63;;;;;;;;;;5034139;28;20025;-80
2022/05/08 04:51:20;;;;;;;19.77;13.25;;;;;;;;;;5037588;28;20028;-79
2022/05/08 04:53:46;;;;;;;19.15;12.98;;;;;;;;;;5024855;28;20492;-81
2022/05/08 04:56:12;;;;;;;15.85;12.13;;;;;;;;;;5023738;28;20021;-80
2022/05/08 04:58:37;;;;;;;16.02;10.98;;;;;;;;;;5010039;28;20030;-80
2022/05/08 05:01:02;;;;;;;17.42;11.10;;;;;;;;;;5001029;28;20042;-80
2022/05/08 05:03:28;;;;;;;15.27;10.98;;;;;;;;;;5009711;28;20086;-82
2022/05/08 05:05:53;;;;;;;13.57;10.30;;;;;;;;;;5019053;28;20025;-83
2022/05/08 05:08:20;;;;;;;13.88;11.07;;;;;;;;;;5016697;28;20029;-81
2022/05/08 05:10:46;;;;;;;12.65;9.85;;;;;;;;;;5018052;28;20052;-84
2022/05/08 05:13:12;;;;;;;14.10;10.13;;;;;;;;;;5008437;28;20042;-80
2022/05/08 05:15:37;;;;;;;14.52;10.18;;;;;;;;;;4997665;28;20022;-80
2022/05/08 05:18:03;;;;;;;17.23;10.98;;;;;;;;;;4999235;28;20048;-82
2022/05/08 05:20:29;;;;;;;16.50;11.75;;;;;;;;;;5007452;28;20014;-81
2022/05/08 05:22:55;;;;;;;13.80;11.45;;;;;;;;;;5012776;28;20026;-81
2022/05/08 05:25:20;;;;;;;19.35;11.93;;;;;;;;;;4999072;28;20084;-80
2022/05/08 05:27:46;;;;;;;14.57;11.48;;;;;;;;;;4996789;28;20022;-83
2022/05/08 05:30:11;;;;;;;14.80;11.50;;;;;;;;;;4996176;28;20030;-81
2022/05/08 05:32:39;;;;;;;16.70;11.50;;;;;;;;;;4999146;28;20038;-79
2022/05/08 05:35:05;;;;;;;16.10;10.70;;;;;;;;;;5010910;28;20089;-83
2022/05/08 05:37:31;;;;;;;18.45;12.80;;;;;;;;;;5008782;28;20062;-80
2022/05/08 05:39:56;;;;;;;16.27;11.90;;;;;;;;;;4998334;28;20168;-79
2022/05/08 05:42:21;;;;;;;17.60;11.65;;;;;;;;;;5006469;28;20022;-81
2022/05/08 05:44:47;;;;;;;17.95;12.07;;;;;;;;;;5030170;28;20025;-80
2022/05/08 05:49:56;;;;;;;13.35;11.07;;;;;;;;;;5019083;28;20024;-83
2022/05/08 05:52:22;;;;;;;16.77;11.10;;;;;;;;;;5009684;28;20376;-81
2022/05/08 05:54:47;;;;;;;14.32;10.88;;;;;;;;;;5010529;28;20105;-81
2022/05/08 05:57:13;;;;;;;16.23;11.63;;;;;;;;;;5013952;28;20072;-83
2022/05/08 05:59:38;;;;;;;15.63;10.85;;;;;;;;;;5017506;28;20029;-81
2022/05/08 06:02:03;;;;;;;17.05;11.70;;;;;;;;;;5015774;28;20026;-79
2022/05/08 06:04:29;;;;;;;17.85;11.55;;;;;;;;;;5002671;28;20089;-79
2022/05/08 06:06:54;;;;;;;16.60;12.07;;;;;;;;;;5008385;28;20029;-81
2022/05/08 06:09:20;;;;;;;15.32;12.15;;;;;;;;;;5014667;28;20424;-82
2022/05/08 06:11:45;;;;;;;17.38;11.65;;;;;;;;;;5002433;28;20026;-83
2022/05/08 06:14:11;;;;;;;15.00;11.65;;;;;;;;;;4997910;28;20040;-80
2022/05/08 06:16:36;;;;;;;16.13;11.82;;;;;;;;;;4995421;28;20038;-82
2022/05/08 06:19:02;;;;;;;15.93;11.20;;;;;;;;;;5012875;28;20034;-83
2022/05/08 06:21:27;;;;;;;13.30;11.07;;;;;;;;;;5015968;28;20049;-81
2022/05/08 06:23:55;;;;;;;14.43;10.77;;;;;;;;;;5002516;28;20100;-82
2022/05/08 06:26:21;;;;;;;16.02;10.93;;;;;;;;;;4997692;28;20026;-81
2022/05/08 06:28:48;;;;;;;15.63;10.95;;;;;;;;;;5003435;28;20046;-81
2022/05/08 06:31:16;;;;;;;13.68;10.82;;;;;;;;;;4998303;28;20425;-81
2022/05/08 06:33:43;;;;;;;15.95;11.80;;;;;;;;;;5013205;28;20037;-82
2022/05/08 06:36:08;;;;;;;12.43;9.90;;;;;;;;;;5015162;28;20480;-80
2022/05/08 06:38:33;;;;;;;15.15;11.93;;;;;;;;;;5013039;28;20088;-80
2022/05/08 06:40:59;;;;;;;12.80;10.88;;;;;;;;;;5013294;28;20022;-79
2022/05/08 06:43:24;;;;;;;16.60;10.88;;;;;;;;;;5015788;28;20100;-81
2022/05/08 06:45:50;;;;;;;15.32;11.55;;;;;;;;;;5016400;28;20030;-80
2022/05/08 06:48:15;;;;;;;14.07;10.90;;;;;;;;;;5015086;28;20026;-81
2022/05/08 06:50:41;;;;;;;12.93;10.93;;;;;;;;;;5013908;28;20033;-80
2022/05/08 06:53:06;;;;;;;16.20;10.57;;;;;;;;;;5014759;28;20030;-80
2022/05/08 06:55:35;;;;;;;13.02;10.38;;;;;;;;;;5014537;28;20038;-81
2022/05/08 06:58:01;;;;;;;14.30;10.55;;;;;;;;;;5018122;28;20026;-81
2022/05/08 07:03:10;;;;;;;12.32;10.13;;;;;;;;;;5014989;28;20053;-80
2022/05/08 07:05:40;;;;;;;15.45;10.18;;;;;;;;;;5020128;28;20022;-81
2022/05/08 07:08:06;;;;;;;13.55;10.63;;;;;;;;;;5019470;28;20058;-80
2022/05/08 07:10:31;;;;;;;13.70;10.65;;;;;;;;;;5019445;28;20108;-80
2022/05/08 07:12:56;;;;;;;16.08;11.20;;;;;;;;;;5040905;28;20037;-82
2022/05/08 07:15:22;;;;;;;12.20;10.30;;;;;;;;;;5016357;28;20082;-82
2022/05/08 07:17:47;;;;;;;13.00;9.98;;;;;;;;;;5019663;28;20025;-82
2022/05/08 07:20:13;;;;;;;14.63;9.93;;;;;;;;;;5005828;28;20022;-81
2022/05/08 07:22:39;;;;;;;13.50;10.70;;;;;;;;;;5017360;28;20112;-80
2022/05/08 07:25:05;;;;;;;16.15;11.05;;;;;;;;;;5013177;28;20018;-81
2022/05/08 07:27:32;;;;;;;13.13;10.27;;;;;;;;;;5010975;28;20034;-82
2022/05/08 07:29:57;;;;;;;13.55;9.90;;;;;;;;;;5004558;28;20014;-82
2022/05/08 07:32:24;;;;;;;16.25;10.45;;;;;;;;;;5015093;28;20152;-83
2022/05/08 07:37:34;;;;;;;12.85;10.25;;;;;;;;;;5039535;28;20047;-81
2022/05/08 07:39:59;;;;;;;12.60;10.30;;;;;;;;;;5012427;28;20407;-83
2022/05/08 07:42:24;;;;;;;16.25;10.38;;;;;;;;;;5014464;28;20108;-82
2022/05/08 07:44:50;;;;;;;11.50;9.57;;;;;;;;;;5010601;28;20045;-81
2022/05/08 07:47:15;;;;;;;12.75;10.52;;;;;;;;;;5019276;28;20499;-82
2022/05/08 07:49:40;;;;;;;11.52;9.13;;;;;;;;;;5016765;28;20432;-82
2022/05/08 07:52:06;;;;;;;12.48;9.20;;;;;;;;;;5024574;28;20438;-80
2022/05/08 07:54:31;;;;;;;13.48;9.40;;;;;;;;;;5017257;28;20710;-82
2022/05/08 07:56:57;;;;;;;12.10;9.65;;;;;;;;;;5020876;28;20453;-84
2022/05/08 07:59:22;;;;;;;13.13;9.57;;;;;;;;;;5021104;28;20030;-83
2022/05/08 08:01:47;;;;;;;11.75;8.75;;;;;;;;;;5039030;28;20112;-82
2022/05/08 08:04:13;;;;;;;11.38;9.00;;;;;;;;;;5018045;28;20022;-81
2022/05/08 08:06:38;;;;;;;10.77;9.57;;;;;;;;;;5010683;28;20021;-79
2022/05/08 08:09:04;;;;;;;12.05;8.93;;;;;;;;;;5010926;28;20424;-81
2022/05/08 08:11:31;;;;;;;11.35;8.70;;;;;;;;;;5007706;28;20014;-81
2022/05/08 08:13:57;;;;;;;11.98;9.30;;;;;;;;;;5008381;28;20389;-82
2022/05/08 08:16:22;;;;;;;10.35;8.85;;;;;;;;;;5019507;28;20037;-83
2022/05/08 08:18:49;;;;;;;11.35;9.27;;;;;;;;;;5020543;28;20032;-83
2022/05/08 08:21:16;;;;;;;12.60;8.85;;;;;;;;;;5015689;28;20013;-81
2022/05/08 08:23:43;;;;;;;14.93;9.82;;;;;;;;;;5008306;28;20025;-82
2022/05/08 08:26:09;;;;;;;12.00;9.65;;;;;;;;;;5011291;28;20018;-82
2022/05/08 08:28:35;;;;;;;12.40;9.27;;;;;;;;;;5010996;28;20033;-85
2022/05/08 08:31:01;;;;;;;12.52;9.57;;;;;;;;;;5019067;28;20108;-82
2022/05/08 08:33:42;;;;;;;12.25;10.52;;;;;;;;;;5019284;28;20424;-82
2022/05/08 08:36:09;;;;;;;12.30;9.88;;;;;;;;;;5019520;28;20445;-83
2022/05/08 08:38:38;;;;;;;15.13;10.38;;;;;;;;;;5017297;28;20030;-83
2022/05/08 08:41:05;;;;;;;11.52;10.02;;;;;;;;;;5015838;28;20045;-82
2022/05/08 08:49:02;;;;;;;13.02;7.93;;;;;;;;;;5018077;28;20040;-84
2022/05/08 08:51:27;;;;;;;10.27;7.80;;;;;;;;;;5016910;28;20032;-81
2022/05/08 08:53:55;;;;;;;12.13;7.72;;;;;;;;;;5010680;28;20029;-81
2022/05/08 08:56:21;;;;;;;12.68;9.82;;;;;;;;;;5015065;28;20085;-82
2022/05/08 08:58:47;;;;;;;11.98;8.52;;;;;;;;;;5012046;28;20094;-82
2022/05/08 09:01:14;;;;;;;11.93;8.95;;;;;;;;;;5017095;28;20065;-81
2022/05/08 09:03:39;;;;;;;11.60;8.38;;;;;;;;;;5022425;28;20045;-80
2022/05/08 09:06:08;;;;;;;12.43;8.85;;;;;;;;;;5017687;28;20446;-83
2022/05/08 09:08:35;;;;;;;11.43;8.57;;;;;;;;;;5013813;28;20029;-81
2022/05/08 09:11:02;;;;;;;11.27;8.27;;;;;;;;;;5011388;28;20018;-80
2022/05/08 09:13:31;;;;;;;10.40;8.18;;;;;;;;;;5018545;28;20066;-78
2022/05/08 09:16:06;;;;;;;13.63;8.55;;;;;;;;;;5010517;28;20030;-81
2022/05/08 09:18:48;;;;;;;12.05;7.85;;;;;;;;;;5010079;28;20053;-79
2022/05/08 09:24:13;;;;;;;10.32;6.95;;;;;;;;;;5028639;28;20040;-81
2022/05/08 09:26:39;;;;;;;8.80;7.07;;;;;;;;;;5036541;28;20018;-82
2022/05/08 09:29:05;;;;;;;11.88;7.05;;;;;;;;;;5016136;28;20104;-81
2022/05/08 09:31:42;;;;;;;9.60;6.95;;;;;;;;;;5019888;28;20029;-81
2022/05/08 09:34:08;;;;;;;7.70;5.90;;;;;;;;;;5029232;28;20511;-80
2022/05/08 09:36:33;;;;;;;8.63;6.38;;;;;;;;;;5021644;28;20038;-81
2022/05/08 09:39:03;;;;;;;7.78;6.50;;;;;;;;;;5019286;28;20400;-82
2022/05/08 09:41:34;;;;;;;9.27;6.75;;;;;;;;;;5022505;28;20053;-81
2022/05/08 09:44:16;;;;;;;10.73;6.68;;;;;;;;;;5012712;28;20431;-81
2022/05/08 09:46:48;;;;;;;8.90;7.22;;;;;;;;;;5002505;28;20018;-83
2022/05/08 09:49:19;;;;;;;8.30;6.88;;;;;;;;;;5006897;28;20026;-82
2022/05/08 09:51:45;;;;;;;11.32;7.15;;;;;;;;;;5009746;28;20018;-80
2022/05/08 09:54:13;;;;;;;9.90;6.65;;;;;;;;;;5020260;28;20460;-83
2022/05/08 09:56:39;;;;;;;9.23;6.68;;;;;;;;;;5014451;28;20113;-83
2022/05/08 09:59:10;;;;;;;9.85;7.05;;;;;;;;;;5009326;28;20554;-82
2022/05/08 10:01:38;;;;;;;13.38;6.22;;;;;;;;;;4994052;28;20026;-80
2022/05/08 10:04:03;;;;;;;7.25;6.10;;;;;;;;;;5017189;28;20025;-83
2022/05/08 10:06:32;;;;;;;10.25;7.38;;;;;;;;;;5024692;28;20025;-83
2022/05/08 10:13:53;;;;;;;13.65;6.85;;;;;;;;;;5004557;28;20060;-81
2022/05/08 10:14:45;;;;;;;12.52;6.80;;;;;;;;;;5019726;28;20045;-89
2022/05/08 10:17:28;;;;;;;6.97;5.93;;;;;;;;;;5009296;28;20034;-84
2022/05/08 10:19:53;;;;;;;8.27;6.43;;;;;;;;;;5005461;28;20025;-85
2022/05/08 10:22:19;;;;;;;7.85;6.40;;;;;;;;;;5017248;28;20045;-83
2022/05/08 10:24:53;;;;;;;10.73;6.40;;;;;;;;;;5015933;28;20030;-80
2022/05/08 10:27:26;;;;;;;9.82;5.90;;;;;;;;;;5003317;28;20539;-84
2022/05/08 10:29:52;;;;;;;7.05;5.55;;;;;;;;;;5000285;28;20040;-83
2022/05/08 10:32:33;;;;;;;6.78;5.50;;;;;;;;;;5005703;28;20057;-82
2022/05/08 10:35:17;;;;;;;9.52;6.07;;;;;;;;;;5025695;28;20031;-83
2022/05/08 10:37:47;;;;;;;8.90;6.00;;;;;;;;;;5014113;28;20026;-80
2022/05/08 10:40:25;;;;;;;8.32;5.25;;;;;;;;;;5015611;28;20037;-83
2022/05/08 10:43:25;;;;;;;7.50;5.05;;;;;;;;;;5018281;28;20033;-83
2022/05/08 10:45:51;;;;;;;7.35;6.03;;;;;;;;;;5018543;28;20018;-83
2022/05/08 10:48:17;;;;;;;9.98;6.22;;;;;;;;;;5011253;28;20026;-83
2022/05/08 10:50:46;;;;;;;8.68;6.35;;;;;;;;;;5018228;28;20032;-84
2022/05/08 10:53:33;;;;;;;8.15;5.82;;;;;;;;;;5019113;28;20072;-84
2022/05/08 10:56:09;;;;;;;6.97;5.80;;;;;;;;;;5019788;28;20017;-83
2022/05/08 10:58:38;;;;;;;6.35;5.30;;;;;;;;;;5013348;28;20025;-83
2022/05/08 11:01:06;;;;;;;7.65;4.82;;;;;;;;;;5011585;28;20029;-84
2022/05/08 11:03:35;;;;;;;5.05;3.35;;;;;;;;;;5010958;28;20049;-83
2022/05/08 11:06:00;;;;;;;6.55;2.63;;;;;;;;;;5021955;28;20017;-85
2022/05/08 11:08:28;;;;;;;7.53;3.40;;;;;;;;;;5016772;28;20037;-84
2022/05/08 11:11:03;;;;;;;6.15;4.55;;;;;;;;;;5021671;28;20026;-87
2022/05/08 11:13:40;;;;;;;7.80;4.45;;;;;;;;;;5022242;28;20491;-83
2022/05/08 11:16:06;;;;;;;4.55;3.85;;;;;;;;;;5017476;28;20057;-85
2022/05/08 11:18:31;;;;;;;5.72;3.80;;;;;;;;;;5011322;28;20034;-83
2022/05/08 11:20:59;;;;;;;8.20;4.40;;;;;;;;;;5015703;28;20049;-84
2022/05/08 11:23:29;;;;;;;3.80;3.10;;;;;;;;;;5026191;28;20029;-84
2022/05/08 11:25:56;;;;;;;6.22;4.50;;;;;;;;;;5012495;28;20026;-81
2022/05/08 11:28:23;;;;;;;5.40;3.90;;;;;;;;;;5011785;28;20026;-83
2022/05/08 11:30:50;;;;;;;5.00;3.47;;;;;;;;;;5013179;28;20034;-82
2022/05/08 11:38:50;;;;;;;6.05;3.28;;;;;;;;;;5016175;28;20033;-80
2022/05/08 11:41:21;;;;;;;4.82;3.35;;;;;;;;;;5024342;28;20371;-80
2022/05/08 11:43:49;;;;;;;5.57;3.28;;;;;;;;;;5009059;28;20030;-83
2022/05/08 11:46:20;;;;;;;6.13;3.47;;;;;;;;;;5007469;28;20037;-83
2022/05/08 11:48:49;;;;;;;7.45;3.33;;;;;;;;;;5015085;28;20029;-81
2022/05/08 11:51:18;;;;;;;5.03;3.30;;;;;;;;;;5023057;28;20029;-83
2022/05/08 11:53:46;;;;;;;4.70;3.55;;;;;;;;;;5014720;28;20018;-82
2022/05/08 11:56:21;;;;;;;5.90;3.70;;;;;;;;;;5001033;28;20026;-80
2022/05/08 11:58:47;;;;;;;6.63;3.67;;;;;;;;;;5026875;28;20036;-80
2022/05/08 12:04:35;;;;;;;6.70;3.70;;;;;;;;;;5011666;28;20040;-82
2022/05/08 12:07:09;;;;;;;6.90;3.70;;;;;;;;;;5022337;28;20025;-81
2022/05/08 12:09:48;;;;;;;7.50;3.25;;;;;;;;;;5022116;28;20116;-81
2022/05/08 12:12:32;;;;;;;6.45;3.47;;;;;;;;;;5016420;28;20026;-80
2022/05/08 12:15:06;;;;;;;6.18;3.55;;;;;;;;;;5022880;28;20103;-83
2022/05/08 12:17:43;;;;;;;6.97;3.13;;;;;;;;;;5038061;28;20017;-82
2022/05/08 12:20:14;;;;;;;4.15;3.28;;;;;;;;;;5021763;28;20109;-82
2022/05/08 12:22:41;;;;;;;5.43;3.20;;;;;;;;;;5016345;28;20439;-82
2022/05/08 12:25:07;;;;;;;4.93;3.35;;;;;;;;;;5024727;28;20035;-81
2022/05/08 12:27:33;;;;;;;6.82;3.42;;;;;;;;;;5018944;28;20116;-83
2022/05/08 12:30:00;;;;;;;6.35;3.47;;;;;;;;;;5018809;28;20472;-83
2022/05/08 12:32:26;;;;;;;3.45;3.10;;;;;;;;;;5028433;28;20481;-80
2022/05/08 12:34:53;;;;;;;4.25;2.95;;;;;;;;;;5019670;28;20029;-82
2022/05/08 12:37:20;;;;;;;7.25;3.00;;;;;;;;;;5027355;28;20044;-84
2022/05/08 12:39:46;;;;;;;6.65;3.10;;;;;;;;;;5034232;28;20148;-79
2022/05/08 12:42:12;;;;;;;4.30;2.80;;;;;;;;;;5018514;28;20067;-79
2022/05/08 12:44:37;;;;;;;4.28;3.10;;;;;;;;;;5031277;28;20029;-79
2022/05/08 12:47:13;;;;;;;3.50;2.88;;;;;;;;;;5013851;28;20033;-80
2022/05/08 12:49:40;;;;;;;5.53;2.67;;;;;;;;;;5023424;28;20067;-79
2022/05/08 12:52:08;;;;;;;4.88;2.90;;;;;;;;;;5025057;28;20025;-79
2022/05/08 12:54:34;;;;;;;4.97;3.42;;;;;;;;;;5012044;28;20437;-78
2022/05/08 12:57:01;;;;;;;5.60;2.90;;;;;;;;;;5017183;28;20025;-79
2022/05/08 12:59:47;;;;;;;3.90;2.67;;;;;;;;;;5027860;28;20438;-77
2022/05/08 13:02:18;;;;;;;5.95;3.83;;;;;;;;;;5031337;28;20025;-82
2022/05/08 13:04:44;;;;;;;8.90;5.68;;;;;;;;;;5012825;28;20051;-82
2022/05/08 13:07:10;;;;;;;5.53;2.75;;;;;;;;;;5026430;28;20028;-81
2022/05/08 13:09:36;;;;;;;3.30;2.83;;;;;;;;;;5010547;28;20105;-81
2022/05/08 13:12:03;;;;;;;4.03;2.65;;;;;;;;;;5037864;28;20026;-82
2022/05/08 13:14:29;;;;;;;4.68;2.47;;;;;;;;;;5021177;28;20125;-82
2022/05/08 13:17:01;;;;;;;4.13;2.95;;;;;;;;;;5032436;28;20071;-82
2022/05/08 13:19:29;;;;;;;4.40;2.92;;;;;;;;;;5021623;28;20033;-82
2022/05/08 13:21:55;;;;;;;5.50;3.00;;;;;;;;;;5027755;28;20391;-81
2022/05/08 13:24:20;;;;;;;3.83;2.63;;;;;;;;;;5016215;28;20045;-82
2022/05/08 13:26:46;;;;;;;3.97;2.88;;;;;;;;;;5007151;28;20050;-81
2022/05/08 13:29:12;;;;;;;6.90;3.03;;;;;;;;;;5013708;28;20032;-81
2022/05/08 13:31:41;;;;;;;4.57;2.78;;;;;;;;;;5028049;28;20038;-80
2022/05/08 13:34:09;;;;;;;4.80;3.50;;;;;;;;;;5038402;28;20017;-82
2022/05/08 13:36:35;;;;;;;9.07;3.42;;;;;;;;;;5043955;28;20283;-79
2022/05/08 13:39:00;;;;;;;5.68;3.38;;;;;;;;;;5044814;28;20034;-82
2022/05/08 13:41:26;;;;;;;3.83;2.95;;;;;;;;;;5019165;28;20031;-81
2022/05/08 13:43:51;;;;;;;6.53;2.92;;;;;;;;;;5000499;28;20105;-83
2022/05/08 13:46:17;;;;;;;7.50;2.78;;;;;;;;;;5023213;28;20033;-84
2022/05/08 13:48:43;;;;;;;5.82;2.65;;;;;;;;;;5028822;28;20029;-83
2022/05/08 13:51:10;;;;;;;4.85;2.70;;;;;;;;;;5027430;28;20026;-83
2022/05/08 13:53:35;;;;;;;2.72;2.42;;;;;;;;;;5014681;28;20022;-84
2022/05/08 13:56:02;;;;;;;5.15;2.50;;;;;;;;;;5010846;28;20400;-84
2022/05/08 13:58:28;;;;;;;7.22;2.33;;;;;;;;;;5016390;28;20106;-83
2022/05/08 14:00:58;;;;;;;3.40;2.40;;;;;;;;;;5020219;28;20480;-84
2022/05/08 14:03:24;;;;;;;6.13;2.55;;;;;;;;;;5005105;28;20473;-83
2022/05/08 14:05:51;;;;;;;3.40;2.33;;;;;;;;;;5021633;28;20025;-83
2022/05/08 14:08:18;;;;;;;4.30;2.20;;;;;;;;;;5035074;28;20043;-81
2022/05/08 14:10:44;;;;;;;4.70;2.47;;;;;;;;;;5027931;28;20092;-81
2022/05/08 14:13:10;;;;;;;6.50;2.60;;;;;;;;;;4980219;28;20038;-83
2022/05/08 14:15:36;;;;;;;5.13;2.53;;;;;;;;;;4996391;28;20033;-81
2022/05/08 14:18:02;;;;;;;5.15;2.17;;;;;;;;;;5010873;28;20013;-83
2022/05/08 14:20:28;;;;;;;4.95;3.15;;;;;;;;;;5024715;28;20028;-84
2022/05/08 14:22:54;;;;;;;5.03;3.08;;;;;;;;;;4999336;28;20069;-85
2022/05/08 14:25:20;;;;;;;4.00;2.38;;;;;;;;;;5020484;28;20546;-81
2022/05/08 14:27:46;;;;;;;5.13;2.90;;;;;;;;;;5026394;28;20093;-82
2022/05/08 14:30:12;;;;;;;9.02;2.53;;;;;;;;;;5035666;28;20057;-82
2022/05/08 14:38:12;;;;;;;3.58;2.42;;;;;;;;;;5025749;28;20395;-84
2022/05/08 14:40:38;;;;;;;3.78;2.70;;;;;;;;;;5018640;28;20031;-82
2022/05/08 14:43:05;;;;;;;5.85;2.97;;;;;;;;;;5034759;28;20132;-83
2022/05/08 14:45:31;;;;;;;8.52;3.10;;;;;;;;;;5029909;28;20033;-83
2022/05/08 14:47:57;;;;;;;3.83;2.72;;;;;;;;;;4996826;28;20031;-83
2022/05/08 14:50:24;;;;;;;3.33;2.20;;;;;;;;;;5023883;28;20031;-83
2022/05/08 14:52:49;;;;;;;6.55;2.80;;;;;;;;;;4997942;28;20520;-83
2022/05/08 14:55:14;;;;;;;4.60;2.38;;;;;;;;;;5006976;28;20026;-81
2022/05/08 14:57:41;;;;;;;4.50;2.97;;;;;;;;;;4996305;28;20023;-81
2022/05/08 15:00:07;;;;;;;3.70;2.65;;;;;;;;;;4997490;28;20022;-80
2022/05/08 15:02:33;;;;;;;4.35;2.50;;;;;;;;;;5001133;28;20034;-81
2022/05/08 15:04:58;;;;;;;4.07;2.53;;;;;;;;;;5009721;28;20026;-81
2022/05/08 15:07:24;;;;;;;3.53;2.45;;;;;;;;;;5017461;28;20026;-84
2022/05/08 15:09:49;;;;;;;3.28;2.72;;;;;;;;;;5022070;28;20093;-82
2022/05/08 15:12:15;;;;;;;6.28;2.85;;;;;;;;;;5034659;28;20407;-82
2022/05/08 15:14:40;;;;;;;6.75;2.75;;;;;;;;;;5002766;28;20022;-81
2022/05/08 15:17:06;;;;;;;5.45;2.60;;;;;;;;;;4997399;28;20041;-82